createdAt,value
2022-12-07T00:02:13.097Z,100
2022-12-07T00:07:17.528Z,100
2022-12-07T00:12:21.076Z,100
2022-12-07T00:17:25.751Z,100
2022-12-07T00:22:30.155Z,100
2022-12-07T00:27:34.045Z,100
2022-12-07T00:32:38.276Z,100
2022-12-07T00:37:42.770Z,100
2022-12-07T00:42:47.357Z,100
2022-12-07T00:47:51.975Z,100
2022-12-07T00:52:56.487Z,100
2022-12-07T00:58:01.031Z,100
2022-12-07T01:03:04.660Z,100
2022-12-07T01:08:09.351Z,100
2022-12-07T01:13:13.637Z,100
2022-12-07T01:18:17.200Z,100
2022-12-07T01:23:21.726Z,100
2022-12-07T01:28:26.263Z,100
2022-12-07T01:33:29.832Z,100
2022-12-07T01:38:34.334Z,100
2022-12-07T01:43:38.862Z,100
2022-12-07T01:48:43.435Z,100
2022-12-07T01:53:46.982Z,100
2022-12-07T01:58:51.516Z,100
2022-12-07T02:03:56.076Z,100
2022-12-07T02:08:59.590Z,100
2022-12-07T02:14:04.132Z,100
2022-12-07T02:19:08.686Z,100
2022-12-07T02:24:12.185Z,100
2022-12-07T02:29:16.753Z,100
2022-12-07T02:34:20.324Z,100
2022-12-07T02:39:24.840Z,100
2022-12-07T02:44:29.409Z,100
2022-12-07T02:49:32.962Z,100
2022-12-07T02:54:37.450Z,100
2022-12-07T02:59:41.998Z,100
2022-12-07T03:04:45.565Z,100
2022-12-07T03:09:50.050Z,100
2022-12-07T03:14:54.608Z,100
2022-12-07T03:19:58.178Z,100
2022-12-07T03:25:02.689Z,100
2022-12-07T03:30:07.222Z,100
2022-12-07T03:35:11.792Z,100
2022-12-07T03:40:15.332Z,100
2022-12-07T03:45:19.827Z,100
2022-12-07T03:50:24.418Z,100
2022-12-07T03:55:27.903Z,100
2022-12-07T04:00:32.475Z,100
2022-12-07T04:05:37.029Z,100
2022-12-07T04:10:41.695Z,100
2022-12-07T04:15:46.284Z,100
2022-12-07T04:20:50.733Z,100
2022-12-07T04:25:54.301Z,100
2022-12-07T04:30:58.862Z,100
2022-12-07T04:36:03.398Z,100
2022-12-07T04:41:07.864Z,100
2022-12-07T04:46:11.430Z,100
2022-12-07T04:51:15.975Z,100
2022-12-07T04:56:20.480Z,100
2022-12-07T05:01:24.111Z,100
2022-12-07T05:06:28.607Z,100
2022-12-07T05:11:33.102Z,100
2022-12-07T05:16:36.730Z,100
2022-12-07T05:21:41.212Z,100
2022-12-07T05:26:45.752Z,100
2022-12-07T05:31:49.334Z,100
2022-12-07T05:36:53.814Z,100
2022-12-07T05:41:58.365Z,100
2022-12-07T05:47:02.887Z,100
2022-12-07T05:52:06.449Z,100
2022-12-07T05:57:10.969Z,100
2022-12-07T06:02:15.618Z,100
2022-12-07T06:07:19.112Z,100
2022-12-07T06:12:23.596Z,100
2022-12-07T06:17:28.189Z,100
2022-12-07T06:22:31.705Z,100
2022-12-07T06:27:36.235Z,100
2022-12-07T06:32:40.772Z,100
2022-12-07T06:37:44.545Z,100
2022-12-07T06:42:48.841Z,100
2022-12-07T06:47:52.400Z,100
2022-12-07T06:52:56.946Z,100
2022-12-07T06:58:01.458Z,100
2022-12-07T07:03:05.063Z,100
2022-12-07T07:08:25.095Z,100
2022-12-07T07:13:14.086Z,100
2022-12-07T07:18:17.648Z,100
2022-12-07T07:23:22.224Z,100
2022-12-07T07:28:26.719Z,100
2022-12-07T07:33:31.217Z,100
2022-12-07T07:38:34.833Z,100
2022-12-07T07:43:39.328Z,100
2022-12-07T07:48:43.877Z,100
2022-12-07T07:53:47.549Z,100
2022-12-07T07:58:51.965Z,100
2022-12-07T08:03:56.531Z,100
2022-12-07T08:09:00.320Z,100
2022-12-07T08:14:04.565Z,100
2022-12-07T08:19:09.130Z,100
2022-12-07T08:24:12.681Z,100
2022-12-07T08:29:17.167Z,100
2022-12-07T08:34:21.731Z,100
2022-12-07T08:39:33.402Z,100
2022-12-07T08:44:29.817Z,100
2022-12-07T08:49:34.385Z,100
2022-12-07T08:54:38.956Z,100
2022-12-07T08:59:42.465Z,100
2022-12-07T09:04:46.961Z,100
2022-12-07T09:09:51.512Z,100
2022-12-07T09:14:55.052Z,100
2022-12-07T09:19:59.904Z,100
2022-12-07T09:25:04.220Z,100
2022-12-07T09:30:07.646Z,100
2022-12-07T09:35:12.217Z,100
2022-12-07T09:40:16.773Z,100
2022-12-07T09:45:21.262Z,100
2022-12-07T09:50:24.830Z,100
2022-12-07T09:55:29.381Z,100
2022-12-07T10:00:33.877Z,100
2022-12-07T10:05:37.476Z,100
2022-12-07T10:10:42.018Z,100
2022-12-07T10:15:46.557Z,100
2022-12-07T10:20:50.088Z,100
2022-12-07T10:25:54.626Z,100
2022-12-07T10:30:59.265Z,100
2022-12-07T10:36:02.657Z,100
2022-12-07T10:41:07.227Z,100
2022-12-07T10:46:14.969Z,100
2022-12-07T10:51:16.286Z,100
2022-12-07T10:56:19.893Z,100
2022-12-07T11:01:23.450Z,100
2022-12-07T11:06:27.901Z,100
2022-12-07T11:11:32.506Z,100
2022-12-07T11:16:36.098Z,100
2022-12-07T11:21:40.517Z,100
2022-12-07T11:26:45.072Z,100
2022-12-07T11:31:49.668Z,100
2022-12-07T11:36:54.264Z,100
2022-12-07T11:41:58.793Z,100
2022-12-07T11:47:03.362Z,100
2022-12-07T11:52:06.888Z,100
2022-12-07T11:57:13.351Z,100
2022-12-07T12:02:15.977Z,99.7
2022-12-07T12:17:28.557Z,99.1
2022-12-07T12:22:32.114Z,98
2022-12-07T12:27:36.685Z,98.7
2022-12-07T12:32:41.167Z,99
2022-12-07T12:37:45.709Z,99.2
2022-12-07T12:42:49.289Z,99
2022-12-07T12:47:53.794Z,99.3
2022-12-07T12:52:58.305Z,99.4
2022-12-07T12:58:01.915Z,99.2
2022-12-07T13:03:10.217Z,99.4
2022-12-07T13:08:10.966Z,99.2
2022-12-07T13:13:14.549Z,99.3
2022-12-07T13:18:19.022Z,99.3
2022-12-07T13:23:23.577Z,99.5
2022-12-07T13:28:27.129Z,99.3
2022-12-07T13:33:31.690Z,99.7
2022-12-07T13:38:36.166Z,99.9
2022-12-07T13:43:40.720Z,99.7
2022-12-07T13:48:44.278Z,99.5
2022-12-07T13:53:48.787Z,99.3
2022-12-07T13:58:53.387Z,99
2022-12-07T14:03:56.885Z,99.1
2022-12-07T14:09:01.403Z,99.3
2022-12-07T14:14:05.992Z,99.4
2022-12-07T14:19:09.516Z,99.3
2022-12-07T14:24:14.005Z,98.6
2022-12-07T14:29:18.602Z,98.3
2022-12-07T14:34:22.181Z,98.3
2022-12-07T14:39:26.676Z,99.1
2022-12-07T14:44:35.617Z,99.3
2022-12-07T14:49:35.702Z,99.2
2022-12-07T14:54:39.256Z,99.2
2022-12-07T14:59:45.335Z,99.7
2022-12-07T15:04:48.515Z,99.7
2022-12-07T15:09:51.874Z,99.8
2022-12-07T15:14:55.470Z,99.7
2022-12-07T15:19:59.994Z,99.8
2022-12-07T15:25:05.082Z,99.8
2022-12-07T15:30:09.105Z,99.8
2022-12-07T15:35:12.618Z,99.8
2022-12-07T15:40:17.121Z,99.9
2022-12-07T15:45:21.739Z,99.9
2022-12-07T15:50:25.208Z,99.7
2022-12-07T15:55:29.778Z,100
2022-12-07T16:00:34.320Z,100
2022-12-07T16:05:37.850Z,100
2022-12-07T16:10:42.380Z,100
2022-12-07T16:15:47.065Z,100
2022-12-07T16:20:50.474Z,100
2022-12-07T16:25:54.984Z,100
2022-12-07T16:30:59.612Z,100
2022-12-07T16:36:04.078Z,100
2022-12-07T16:41:07.595Z,100
2022-12-07T16:46:12.251Z,100
2022-12-07T16:51:16.682Z,100
2022-12-07T16:56:20.246Z,100
2022-12-07T17:01:24.812Z,100
2022-12-07T17:06:29.355Z,100
2022-12-07T17:11:32.880Z,100
2022-12-07T17:16:37.739Z,100
2022-12-07T17:21:41.935Z,100
2022-12-07T17:26:45.523Z,100
2022-12-07T17:31:51.928Z,100
2022-12-07T17:36:54.520Z,100
2022-12-07T17:41:59.115Z,100
2022-12-07T17:47:03.831Z,100
2022-12-07T17:52:08.278Z,100
2022-12-07T17:57:12.841Z,100
2022-12-07T18:02:16.496Z,100
2022-12-07T18:07:20.893Z,100
2022-12-07T18:12:25.407Z,100
2022-12-07T18:17:28.988Z,100
2022-12-07T18:22:33.542Z,100
2022-12-07T18:27:38.030Z,100
2022-12-07T18:32:41.581Z,100
2022-12-07T18:37:46.443Z,100
2022-12-07T18:42:50.666Z,100
2022-12-07T18:47:55.223Z,100
2022-12-07T18:52:58.787Z,100
2022-12-07T18:58:03.334Z,100
2022-12-07T19:03:08.040Z,100
2022-12-07T19:08:12.576Z,100
2022-12-07T19:13:17.040Z,100
2022-12-07T19:18:21.531Z,100
2022-12-07T19:23:25.140Z,100
2022-12-07T19:28:29.634Z,100
2022-12-07T19:33:33.174Z,100
2022-12-07T19:38:37.729Z,100
2022-12-07T19:43:42.271Z,100
2022-12-07T19:48:45.822Z,100
2022-12-07T19:53:50.364Z,100
2022-12-07T19:58:54.888Z,100
2022-12-07T20:03:58.446Z,100
2022-12-07T20:09:02.973Z,100
2022-12-07T20:14:07.515Z,100
2022-12-07T20:19:11.059Z,100
2022-12-07T20:24:15.643Z,100
2022-12-07T20:29:20.129Z,100
2022-12-07T20:34:24.640Z,100
2022-12-07T20:39:28.216Z,100
2022-12-07T20:44:32.752Z,100
2022-12-07T20:49:37.304Z,100
2022-12-07T20:54:40.850Z,100
2022-12-07T20:59:45.371Z,100
2022-12-07T21:04:49.868Z,100
2022-12-07T21:09:53.459Z,100
2022-12-07T21:14:57.960Z,100
2022-12-07T21:20:02.508Z,100
2022-12-07T21:25:06.341Z,100
2022-12-07T21:30:10.586Z,100
2022-12-07T21:35:15.154Z,100
2022-12-07T21:40:19.680Z,100
2022-12-07T21:45:23.223Z,100
2022-12-07T21:50:27.766Z,100
2022-12-07T21:55:32.328Z,100
2022-12-07T22:00:35.830Z,100
2022-12-07T22:05:40.355Z,100
2022-12-07T22:10:44.955Z,100
2022-12-07T22:15:48.632Z,100
2022-12-07T22:20:57.440Z,100
2022-12-07T22:25:57.565Z,100
2022-12-07T22:31:01.107Z,100
2022-12-07T22:36:05.609Z,100
2022-12-07T22:41:10.175Z,100
2022-12-07T22:46:14.717Z,100
2022-12-07T22:51:18.252Z,100
2022-12-07T22:56:22.829Z,100
2022-12-07T23:01:27.335Z,100
2022-12-07T23:06:30.839Z,100
2022-12-07T23:11:38.340Z,100
2022-12-07T23:16:40.076Z,100
2022-12-07T23:21:43.511Z,100
2022-12-07T23:26:48.034Z,100
2022-12-07T23:31:52.639Z,100
2022-12-07T23:36:56.092Z,100
2022-12-07T23:42:00.664Z,100
2022-12-07T23:47:04.218Z,100
2022-12-07T23:52:08.709Z,100
2022-12-07T23:57:13.302Z,100
